Time;durP1;ratioP1;P1;durP2;ratioP2;P2;SDS_P1;SDS_P2;PMS_P1;PMS_P2;Temp;Humidity;BMP_temperature;BMP_pressure;BME280_temperature;BME280_humidity;BME280_pressure;Samples;Min_cycle;Max_cycle;Signal;HPM_P1;HPM_P2
2022/01/10 00:02:36;;;;;;;12.25;5.15;;;;;;;-0.49;100.00;99883.69;5078938;28;20553;-68
2022/01/10 00:05:21;;;;;;;10.70;4.28;;;;;;;-0.33;100.00;99879.72;5086098;28;20101;-62
2022/01/10 00:08:07;;;;;;;10.18;4.78;;;;;;;-0.33;100.00;99880.63;5111740;28;20057;-62
2022/01/10 00:10:53;;;;;;;13.35;5.25;;;;;;;-0.39;100.00;99882.19;5077622;28;20043;-62
2022/01/10 00:13:38;;;;;;;10.68;4.75;;;;;;;-0.28;100.00;99876.41;5071239;28;20121;-63
2022/01/10 00:16:23;;;;;;;9.23;4.57;;;;;;;-0.25;100.00;99886.91;5084913;28;20131;-62
2022/01/10 00:19:09;;;;;;;11.65;4.97;;;;;;;-0.20;100.00;99882.66;5091421;28;20049;-68
2022/01/10 00:21:53;;;;;;;9.63;4.82;;;;;;;-0.21;100.00;99872.22;5084768;28;20134;-63
2022/01/10 00:24:40;;;;;;;9.82;4.55;;;;;;;-0.18;100.00;99872.28;5067762;28;20047;-69
2022/01/10 00:27:25;;;;;;;10.82;4.20;;;;;;;-0.16;100.00;99876.69;5089423;28;20489;-65
2022/01/10 00:30:11;;;;;;;13.50;5.43;;;;;;;-0.12;100.00;99870.69;5091155;28;20051;-64
2022/01/10 00:32:56;;;;;;;10.57;5.10;;;;;;;-0.02;100.00;99874.41;5105229;28;20522;-63
2022/01/10 00:35:43;;;;;;;11.43;4.90;;;;;;;0.06;100.00;99883.28;5067643;28;20050;-63
2022/01/10 00:38:27;;;;;;;11.32;4.75;;;;;;;0.06;100.00;99870.25;5103443;28;20049;-63
2022/01/10 00:41:12;;;;;;;13.15;5.40;;;;;;;-0.09;100.00;99876.00;5086728;28;20474;-61
2022/01/10 00:43:57;;;;;;;9.82;4.90;;;;;;;-0.05;100.00;99876.94;5089234;28;20079;-64
2022/01/10 00:46:43;;;;;;;9.10;4.18;;;;;;;-0.01;100.00;99871.84;5057738;28;20109;-62
2022/01/10 00:49:28;;;;;;;9.70;5.03;;;;;;;-0.02;100.00;99864.00;5058015;28;20054;-66
2022/01/10 00:52:14;;;;;;;11.15;4.85;;;;;;;-0.03;100.00;99868.31;5092855;27;20150;-65
2022/01/10 00:55:01;;;;;;;9.35;5.00;;;;;;;0.01;100.00;99870.13;5079778;28;20104;-61
2022/01/10 00:57:47;;;;;;;9.73;4.70;;;;;;;0.03;100.00;99864.09;5075831;28;20464;-62
2022/01/10 01:00:33;;;;;;;8.48;3.95;;;;;;;0.00;100.00;99860.56;5055777;28;20148;-63
2022/01/10 01:03:18;;;;;;;14.18;5.43;;;;;;;0.04;100.00;99856.31;5083282;28;20501;-60
2022/01/10 01:06:03;;;;;;;;;;;;;;;0.03;100.00;99874.53;5092247;27;20419;-62
2022/01/10 01:08:48;;;;;;;10.00;4.63;;;;;;;-0.07;100.00;99863.00;5080593;28;19923;-62
2022/01/10 01:12:04;;;;;;;10.05;4.72;;;;;;;-0.03;100.00;99852.66;5066314;28;20350;-65
2022/01/10 01:20:30;;;;;;;9.20;4.57;;;;;;;-0.07;100.00;99858.66;5095713;28;20559;-65
2022/01/10 01:26:20;;;;;;;9.05;4.53;;;;;;;-0.13;100.00;99850.72;5096254;28;20088;-65
2022/01/10 01:29:07;;;;;;;9.88;4.20;;;;;;;-0.02;100.00;99848.34;5097907;28;20058;-63
2022/01/10 01:31:53;;;;;;;9.48;4.90;;;;;;;-0.01;100.00;99851.00;5080215;28;20088;-63
2022/01/10 01:34:38;;;;;;;13.02;4.60;;;;;;;-0.12;100.00;99839.44;5098790;28;20084;-64
2022/01/10 01:37:23;;;;;;;8.18;4.50;;;;;;;-0.11;100.00;99846.41;5105511;27;20053;-65
2022/01/10 01:40:10;;;;;;;9.55;4.53;;;;;;;-0.26;100.00;99837.38;5095822;28;20078;-62
2022/01/10 01:42:56;;;;;;;9.18;4.75;;;;;;;-0.16;100.00;99842.81;5085324;28;20078;-63
2022/01/10 01:45:47;;;;;;;10.18;4.32;;;;;;;-0.11;100.00;99848.16;5084459;28;20576;-65
2022/01/10 01:48:31;;;;;;;11.07;4.60;;;;;;;-0.08;100.00;99838.66;5082517;28;20096;-62
2022/01/10 01:51:19;;;;;;;8.82;4.25;;;;;;;-0.02;100.00;99838.81;5097296;27;20108;-63
2022/01/10 01:54:05;;;;;;;7.97;4.30;;;;;;;-0.13;100.00;99834.19;5059835;28;20139;-62
2022/01/10 01:56:53;;;;;;;12.18;4.38;;;;;;;-0.14;100.00;99833.31;5069163;28;20841;-62
2022/01/10 01:59:39;;;;;;;9.38;4.70;;;;;;;-0.16;100.00;99834.09;5073549;28;20047;-63
2022/01/10 02:02:24;;;;;;;13.07;4.80;;;;;;;-0.30;100.00;99836.44;5098796;28;20107;-61
2022/01/10 02:05:09;;;;;;;11.18;4.57;;;;;;;-0.32;100.00;99839.81;5083231;28;20081;-65
2022/01/10 02:07:55;;;;;;;10.80;4.03;;;;;;;-0.26;100.00;99838.25;5091329;27;20046;-63
2022/01/10 02:10:40;;;;;;;9.10;4.47;;;;;;;-0.20;100.00;99827.97;5053902;28;20411;-63
2022/01/10 02:13:26;;;;;;;9.27;4.38;;;;;;;-0.18;100.00;99833.22;5084056;28;20058;-63
2022/01/10 02:16:21;;;;;;;10.70;4.32;;;;;;;-0.12;100.00;99829.00;5076266;28;20046;-62
2022/01/10 02:19:08;;;;;;;7.32;3.72;;;;;;;-0.10;100.00;99836.88;5083227;28;20055;-63
2022/01/10 02:21:54;;;;;;;10.52;4.22;;;;;;;-0.22;100.00;99832.28;5084235;27;20477;-61
2022/01/10 02:24:40;;;;;;;9.48;4.05;;;;;;;-0.26;100.00;99827.84;5081512;28;20126;-65
2022/01/10 02:27:28;;;;;;;10.13;4.25;;;;;;;-0.19;100.00;99829.72;5066573;28;20098;-63
2022/01/10 02:30:13;;;;;;;9.77;4.50;;;;;;;-0.18;100.00;99823.69;5078523;28;20505;-64
2022/01/10 02:33:00;;;;;;;9.25;3.92;;;;;;;-0.21;100.00;99834.03;5090430;28;20042;-64
2022/01/10 02:35:55;;;;;;;11.77;4.00;;;;;;;-0.18;100.00;99838.41;5072382;28;20132;-64
2022/01/10 02:39:09;;;;;;;7.22;3.95;;;;;;;-0.19;100.00;99831.47;5076927;27;20066;-64
2022/01/10 02:41:55;;;;;;;7.82;4.18;;;;;;;-0.33;100.00;99827.63;5056861;28;20089;-64
2022/01/10 02:44:40;;;;;;;8.77;3.75;;;;;;;-0.29;100.00;99827.75;5058963;28;20489;-62
2022/01/10 02:47:27;;;;;;;9.02;4.38;;;;;;;-0.33;100.00;99833.75;5087486;28;20183;-64
2022/01/10 02:50:13;;;;;;;9.07;4.20;;;;;;;-0.30;100.00;99835.53;5080118;28;20420;-63
2022/01/10 02:53:00;;;;;;;8.80;4.20;;;;;;;-0.18;100.00;99826.28;5096443;27;20054;-64
2022/01/10 02:55:46;;;;;;;6.22;3.65;;;;;;;-0.13;100.00;99828.97;5088937;28;20058;-64
2022/01/10 02:58:31;;;;;;;9.45;4.70;;;;;;;-0.17;100.00;99828.03;5076199;28;20058;-63
2022/01/10 03:01:16;;;;;;;8.35;4.50;;;;;;;-0.14;100.00;99833.31;5071486;28;20521;-64
2022/01/10 03:04:02;;;;;;;8.85;4.20;;;;;;;-0.14;100.00;99825.50;5088665;27;20051;-66
2022/01/10 03:06:48;;;;;;;9.00;4.45;;;;;;;-0.17;100.00;99825.44;5070971;28;20486;-69
2022/01/10 03:09:36;;;;;;;9.65;4.53;;;;;;;-0.16;100.00;99831.50;5069686;28;20093;-72
2022/01/10 03:12:24;;;;;;;9.05;4.63;;;;;;;-0.23;100.00;99830.50;5068724;28;20131;-67
2022/01/10 03:15:10;;;;;;;;;;;;;;;-0.24;100.00;99835.66;5100880;28;20054;-66
2022/01/10 03:17:56;;;;;;;10.15;4.15;;;;;;;-0.28;100.00;99828.63;5062733;28;19958;-72
2022/01/10 03:20:41;;;;;;;10.43;4.13;;;;;;;-0.31;100.00;99823.34;5075130;28;20522;-74
2022/01/10 03:23:27;;;;;;;8.73;4.05;;;;;;;-0.19;100.00;99836.66;5084533;27;20113;-70
2022/01/10 03:26:12;;;;;;;8.82;3.95;;;;;;;-0.15;100.00;99834.16;5046199;28;20424;-67
2022/01/10 03:28:58;;;;;;;10.52;3.97;;;;;;;-0.16;100.00;99835.00;5079266;28;20055;-63
2022/01/10 03:31:44;;;;;;;8.57;3.90;;;;;;;-0.30;100.00;99839.03;5082948;28;20047;-65
2022/01/10 03:34:33;;;;;;;7.82;3.70;;;;;;;-0.26;100.00;99842.56;5079584;28;20051;-64
2022/01/10 03:37:18;;;;;;;7.65;3.60;;;;;;;-0.37;100.00;99849.25;5080113;27;20648;-71
2022/01/10 03:40:07;;;;;;;9.93;3.53;;;;;;;-0.28;100.00;99858.16;5082273;28;20143;-72
2022/01/10 03:42:53;;;;;;;6.30;2.90;;;;;;;-0.38;100.00;99839.69;5045997;28;20191;-68
2022/01/10 03:45:39;;;;;;;9.38;3.55;;;;;;;-0.34;100.00;99859.75;5030530;28;20056;-65
2022/01/10 03:48:23;;;;;;;8.55;3.65;;;;;;;-0.36;100.00;99848.38;5044095;28;20583;-66
2022/01/10 03:51:09;;;;;;;6.05;3.33;;;;;;;-0.35;100.00;99850.19;5029732;28;20087;-64
2022/01/10 03:53:54;;;;;;;6.82;3.10;;;;;;;-0.43;100.00;99857.78;5057883;28;20133;-64
2022/01/10 03:56:39;;;;;;;5.97;2.78;;;;;;;-0.34;100.00;99850.22;5052824;28;20048;-65
2022/01/10 03:59:26;;;;;;;6.95;2.85;;;;;;;-0.31;100.00;99844.19;5043724;28;20114;-65
2022/01/10 04:02:11;;;;;;;7.22;3.10;;;;;;;-0.28;100.00;99845.13;5045606;28;20147;-64
2022/01/10 04:04:57;;;;;;;6.32;3.13;;;;;;;-0.24;100.00;99840.88;5042528;28;20140;-74
2022/01/10 04:07:41;;;;;;;;;;;;;;;-0.27;100.00;99857.31;5039810;28;20079;-71
2022/01/10 04:10:26;;;;;;;5.72;2.65;;;;;;;-0.65;100.00;99855.50;5051416;28;19970;-65
2022/01/10 04:13:11;;;;;;;5.00;2.58;;;;;;;-0.54;100.00;99853.16;5057762;28;20059;-65
2022/01/10 04:15:58;;;;;;;8.55;2.83;;;;;;;-0.41;100.00;99853.50;5027314;28;20047;-71
2022/01/10 04:18:44;;;;;;;7.25;2.60;;;;;;;-0.33;100.00;99856.28;5041913;28;20443;-64
2022/01/10 04:21:31;;;;;;;7.75;2.55;;;;;;;-0.33;100.00;99864.09;5056908;28;20047;-64
2022/01/10 04:24:16;;;;;;;6.63;2.90;;;;;;;-0.32;100.00;99869.34;5075199;28;20059;-66
2022/01/10 04:27:01;;;;;;;4.32;2.33;;;;;;;-0.35;100.00;99876.22;5064944;28;20051;-65
2022/01/10 04:29:46;;;;;;;9.43;2.80;;;;;;;-0.38;100.00;99869.22;5063413;28;20542;-66
2022/01/10 04:32:32;;;;;;;5.35;2.50;;;;;;;-0.30;100.00;99877.22;5052908;28;20056;-65
2022/01/10 04:35:19;;;;;;;6.53;2.90;;;;;;;-0.24;100.00;99870.41;5039720;28;20076;-66
2022/01/10 04:38:04;;;;;;;7.68;2.20;;;;;;;-0.33;100.00;99869.31;5046842;28;20052;-68
2022/01/10 04:40:50;;;;;;;6.50;2.88;;;;;;;-0.41;100.00;99869.13;5073349;28;20104;-64
2022/01/10 04:43:37;;;;;;;6.70;2.65;;;;;;;-0.49;100.00;99869.78;5070947;28;20699;-63
2022/01/10 04:46:23;;;;;;;6.65;2.60;;;;;;;-0.45;100.00;99866.41;5080326;28;20096;-65
2022/01/10 04:49:15;;;;;;;;;;;;;;;-0.45;100.00;99867.28;5097757;28;20094;-65
2022/01/10 04:52:01;;;;;;;6.15;2.53;;;;;;;-0.63;100.00;99873.78;5058367;27;19918;-65
2022/01/10 04:54:46;;;;;;;6.10;2.58;;;;;;;-0.63;100.00;99872.03;5083526;28;20525;-64
2022/01/10 04:57:31;;;;;;;6.22;2.63;;;;;;;-0.52;100.00;99881.00;5040032;28;20160;-63
2022/01/10 05:00:16;;;;;;;4.53;2.17;;;;;;;-0.53;100.00;99880.97;5078337;28;20453;-65
2022/01/10 05:03:01;;;;;;;5.95;2.38;;;;;;;-0.52;100.00;99888.81;5059043;28;20054;-66
2022/01/10 05:05:46;;;;;;;8.55;2.55;;;;;;;-0.52;100.00;99885.31;5075579;28;20135;-68
2022/01/10 05:08:31;;;;;;;5.97;2.67;;;;;;;-0.55;100.00;99886.13;5104139;27;20096;-65
2022/01/10 05:11:19;;;;;;;4.82;2.00;;;;;;;-0.56;100.00;99891.28;5071619;28;20196;-64
2022/01/10 05:14:04;;;;;;;4.53;2.10;;;;;;;-0.68;100.00;99890.97;5064981;28;20529;-65
2022/01/10 05:16:49;;;;;;;7.30;2.47;;;;;;;-0.73;100.00;99903.00;5097244;28;20050;-65
2022/01/10 05:19:34;;;;;;;4.75;2.20;;;;;;;-0.76;100.00;99908.09;5097331;28;20108;-64
2022/01/10 05:22:19;;;;;;;32.10;18.08;;;;;;;-0.68;100.00;99902.28;5088835;27;20053;-64
2022/01/10 05:25:05;;;;;;;4.85;2.70;;;;;;;-0.53;100.00;99905.28;5099004;27;20046;-62
2022/01/10 05:27:51;;;;;;;6.07;2.17;;;;;;;-0.53;100.00;99904.38;5083116;28;20082;-62
2022/01/10 05:30:38;;;;;;;4.63;2.20;;;;;;;-0.64;100.00;99905.81;5076811;28;20096;-66
2022/01/10 05:33:23;;;;;;;3.55;1.88;;;;;;;-0.58;100.00;99911.22;5077177;28;20460;-63
2022/01/10 05:36:11;;;;;;;4.97;2.30;;;;;;;-0.51;100.00;99914.00;5074071;28;20054;-65
2022/01/10 05:38:59;;;;;;;4.55;1.95;;;;;;;-0.43;100.00;99909.88;5062570;28;20050;-62
2022/01/10 05:41:46;;;;;;;4.65;2.10;;;;;;;-0.54;100.00;99911.34;5107177;28;20926;-60
2022/01/10 05:44:33;;;;;;;6.45;2.20;;;;;;;-0.44;100.00;99915.03;5044948;28;21941;-60
2022/01/10 05:47:17;;;;;;;5.15;2.10;;;;;;;-0.42;100.00;99924.69;5086040;27;20050;-63
2022/01/10 05:50:04;;;;;;;4.43;1.90;;;;;;;-0.30;100.00;99934.50;5058266;28;20138;-64
2022/01/10 05:52:55;;;;;;;7.78;2.10;;;;;;;-0.34;100.00;99933.56;5065531;28;20085;-63
2022/01/10 05:55:41;;;;;;;4.32;2.20;;;;;;;-0.35;100.00;99936.13;5093826;28;20051;-63
2022/01/10 05:58:28;;;;;;;7.10;2.45;;;;;;;-0.27;100.00;99937.19;5081875;28;20455;-63
2022/01/10 06:01:13;;;;;;;5.60;2.15;;;;;;;-0.37;100.00;99943.00;5065512;28;20519;-62
2022/01/10 06:04:06;;;;;;;6.13;2.08;;;;;;;-0.34;100.00;99941.38;5066236;28;20047;-63
2022/01/10 06:06:56;;;;;;;5.60;2.05;;;;;;;-0.37;100.00;99940.41;5094045;27;20466;-61
2022/01/10 06:09:41;;;;;;;4.82;2.08;;;;;;;-0.35;100.00;99936.13;5092936;28;20050;-63
2022/01/10 06:12:26;;;;;;;4.82;2.25;;;;;;;-0.39;100.00;99942.09;5087595;28;20089;-62
2022/01/10 06:15:11;;;;;;;7.18;2.42;;;;;;;-0.34;100.00;99940.50;5056813;28;20050;-61
2022/01/10 06:18:00;;;;;;;4.93;1.90;;;;;;;-0.36;100.00;99942.16;5087769;28;20097;-58
2022/01/10 06:20:45;;;;;;;;;;;;;;;-0.39;100.00;99942.09;5087695;28;20074;-59
2022/01/10 06:23:30;;;;;;;5.05;2.00;;;;;;;-0.34;100.00;99943.09;5086947;27;19944;-61
2022/01/10 06:26:15;;;;;;;4.53;1.90;;;;;;;-0.42;100.00;99940.31;5058089;28;20047;-60
2022/01/10 06:29:00;;;;;;;8.80;2.50;;;;;;;-0.51;100.00;99927.03;5061308;28;20462;-64
2022/01/10 06:31:45;;;;;;;5.68;2.40;;;;;;;-0.33;100.00;99955.25;5057403;28;20097;-57
2022/01/10 06:34:34;;;;;;;4.65;2.20;;;;;;;-0.29;100.00;99957.09;5080676;28;20071;-55
2022/01/10 06:37:20;;;;;;;6.13;2.13;;;;;;;-0.37;100.00;99956.03;5078725;27;20548;-65
2022/01/10 06:40:07;;;;;;;5.22;2.35;;;;;;;-0.33;100.00;99956.16;5082531;28;20047;-58
2022/01/10 06:42:58;;;;;;;5.70;2.33;;;;;;;-0.33;100.00;99955.25;5057672;28;20055;-64
2022/01/10 06:45:46;;;;;;;6.03;2.33;;;;;;;-0.27;100.00;99948.47;5044381;28;20059;-62
2022/01/10 06:48:34;;;;;;;6.18;2.40;;;;;;;-0.24;100.00;99950.28;5068834;27;20084;-64
2022/01/10 06:51:19;;;;;;;6.03;2.70;;;;;;;-0.19;100.00;99948.69;5108075;27;20054;-63
2022/01/10 06:54:07;;;;;;;5.95;2.53;;;;;;;-0.23;100.00;99955.53;5119459;27;20084;-62
2022/01/10 06:56:53;;;;;;;5.40;2.55;;;;;;;-0.33;100.00;99961.38;5098125;28;20136;-62
2022/01/10 06:59:38;;;;;;;4.25;2.70;;;;;;;-0.33;100.00;99957.88;5073094;28;20051;-62
2022/01/10 07:02:23;;;;;;;6.78;2.90;;;;;;;-0.39;100.00;99963.81;5098922;28;20147;-63
2022/01/10 07:05:10;;;;;;;5.68;2.80;;;;;;;-0.28;100.00;99969.28;5085212;28;20112;-61
2022/01/10 07:07:56;;;;;;;5.90;2.88;;;;;;;-0.38;100.00;99960.38;5066371;27;20092;-64
2022/01/10 07:10:51;;;;;;;7.45;3.17;;;;;;;-0.40;100.00;99964.66;5073765;28;20049;-63
2022/01/10 07:13:36;;;;;;;7.10;3.53;;;;;;;-0.28;100.00;99967.56;5087997;28;20086;-63
2022/01/10 07:16:24;;;;;;;5.38;3.15;;;;;;;-0.28;100.00;99969.28;5063811;28;20051;-65
2022/01/10 07:19:18;;;;;;;5.53;2.92;;;;;;;-0.25;100.00;99967.66;5088469;28;20051;-64
2022/01/10 07:22:03;;;;;;;4.18;2.30;;;;;;;-0.33;100.00;99966.56;5071085;28;20066;-63
2022/01/10 07:24:49;;;;;;;6.35;2.78;;;;;;;-0.28;100.00;99969.28;5099612;28;20046;-65
2022/01/10 07:27:34;;;;;;;5.88;2.72;;;;;;;-0.29;100.00;99963.22;5088372;28;20046;-64
2022/01/10 07:30:19;;;;;;;7.57;2.75;;;;;;;-0.21;100.00;99972.09;5075026;28;20077;-63
2022/01/10 07:33:04;;;;;;;6.10;2.40;;;;;;;-0.18;100.00;99973.91;5080802;28;20117;-64
2022/01/10 07:35:49;;;;;;;6.85;2.70;;;;;;;-0.12;100.00;99968.81;5090891;28;20067;-64
2022/01/10 07:38:37;;;;;;;5.07;2.30;;;;;;;-0.09;100.00;99977.63;5074934;27;20050;-62
2022/01/10 07:41:22;;;;;;;4.03;2.53;;;;;;;-0.08;100.00;99973.28;5069358;28;20197;-64
2022/01/10 07:44:08;;;;;;;5.47;2.22;;;;;;;-0.16;100.00;99972.19;5066073;28;20415;-66
2022/01/10 07:46:55;;;;;;;5.40;2.50;;;;;;;-0.17;100.00;99979.16;5074279;28;20541;-65
2022/01/10 07:49:41;;;;;;;6.32;2.60;;;;;;;-0.24;100.00;99971.13;5085844;28;20063;-64
2022/01/10 07:52:26;;;;;;;5.57;2.58;;;;;;;-0.28;100.00;99978.00;5089000;28;20050;-61
2022/01/10 07:55:11;;;;;;;4.75;2.05;;;;;;;-0.44;100.00;99969.72;5093520;28;20177;-62
2022/01/10 07:57:57;;;;;;;7.38;2.65;;;;;;;-0.27;100.00;99979.75;5085491;28;20152;-59
2022/01/10 08:00:42;;;;;;;6.68;2.55;;;;;;;-0.14;100.00;99979.25;5063696;28;20047;-61
2022/01/10 08:03:27;;;;;;;5.68;2.40;;;;;;;-0.02;100.00;99976.03;5068562;28;20102;-62
2022/01/10 08:06:12;;;;;;;5.57;2.85;;;;;;;-0.07;100.00;99980.28;5064290;28;20125;-60
2022/01/10 08:08:57;;;;;;;6.63;2.70;;;;;;;-0.06;100.00;99976.81;5089058;28;20050;-59
2022/01/10 08:11:42;;;;;;;6.18;2.67;;;;;;;-0.24;100.00;99976.34;5040495;28;20097;-64
2022/01/10 08:14:31;;;;;;;7.70;3.05;;;;;;;-0.14;100.00;99973.13;5063627;28;20443;-61
2022/01/10 08:17:16;;;;;;;6.78;2.95;;;;;;;-0.17;100.00;99963.53;5067544;28;20054;-64
2022/01/10 08:20:01;;;;;;;8.18;3.17;;;;;;;0.06;100.00;99979.72;5095007;28;20109;-61
2022/01/10 08:22:47;;;;;;;9.13;3.40;;;;;;;0.04;100.00;99981.44;5103554;28;20051;-64
2022/01/10 08:25:33;;;;;;;8.02;3.60;;;;;;;-0.13;100.00;99977.50;5099660;28;20050;-63
2022/01/10 08:28:18;;;;;;;7.95;3.80;;;;;;;0.03;100.00;99978.78;5085469;28;20105;-63
2022/01/10 08:31:09;;;;;;;6.82;3.10;;;;;;;0.08;100.00;99980.66;5056808;28;20533;-65
2022/01/10 08:33:55;;;;;;;8.13;3.58;;;;;;;0.13;100.00;99981.66;5100146;28;20054;-63
2022/01/10 08:36:41;;;;;;;9.15;3.72;;;;;;;0.22;100.00;99984.47;5074582;28;20161;-62
2022/01/10 08:39:26;;;;;;;7.47;3.22;;;;;;;0.31;100.00;99986.41;5080396;28;20042;-61
2022/01/10 08:42:11;;;;;;;9.13;3.58;;;;;;;0.45;100.00;99967.63;5063339;28;20101;-62
2022/01/10 08:44:55;;;;;;;9.30;3.40;;;;;;;0.32;100.00;99983.84;5068002;28;20082;-62
2022/01/10 08:47:43;;;;;;;5.97;3.22;;;;;;;0.50;100.00;99981.66;5098057;28;20800;-62
2022/01/10 08:50:29;;;;;;;7.32;3.95;;;;;;;0.56;100.00;99970.50;5073131;28;20572;-65
2022/01/10 08:53:14;;;;;;;7.97;3.80;;;;;;;0.59;100.00;99974.03;5084840;28;20565;-65
2022/01/10 08:55:58;;;;;;;9.18;3.95;;;;;;;0.64;100.00;99982.88;5061507;28;20046;-65
2022/01/10 08:58:43;;;;;;;8.35;4.32;;;;;;;0.71;100.00;99983.88;5091393;28;20055;-65
2022/01/10 09:01:28;;;;;;;7.80;4.28;;;;;;;0.60;100.00;99990.56;5075891;28;20171;-65
2022/01/10 09:04:16;;;;;;;7.88;3.75;;;;;;;0.56;100.00;99981.81;5100638;28;20176;-72
2022/01/10 09:07:02;;;;;;;9.65;4.55;;;;;;;0.59;100.00;99991.44;5081788;28;20180;-63
2022/01/10 09:09:49;;;;;;;8.25;4.28;;;;;;;0.51;100.00;99987.78;5094217;27;20046;-63
2022/01/10 09:12:34;;;;;;;7.63;4.35;;;;;;;0.58;100.00;99984.44;5087959;28;20047;-63
2022/01/10 09:15:23;;;;;;;7.63;3.75;;;;;;;0.60;100.00;99986.25;5061585;28;20058;-64
2022/01/10 09:18:09;;;;;;;7.82;4.35;;;;;;;0.68;100.00;99983.81;5079234;28;20059;-65
2022/01/10 09:20:55;;;;;;;9.38;4.78;;;;;;;0.65;100.00;99987.22;5094377;28;20490;-64
2022/01/10 09:23:41;;;;;;;10.48;5.18;;;;;;;0.68;100.00;99976.88;5101304;27;20506;-64
2022/01/10 09:26:26;;;;;;;7.60;4.60;;;;;;;0.67;100.00;99974.22;5070336;28;20056;-64
2022/01/10 09:29:11;;;;;;;9.18;5.05;;;;;;;0.74;100.00;99973.53;5071527;28;20101;-70
2022/01/10 09:31:57;;;;;;;9.95;4.40;;;;;;;0.64;100.00;99982.88;5095234;28;20050;-65
2022/01/10 09:34:45;;;;;;;7.80;4.65;;;;;;;0.57;100.00;99974.84;5072702;28;20611;-67
2022/01/10 09:37:31;;;;;;;7.55;4.13;;;;;;;0.54;100.00;99972.16;5083790;27;20047;-63
2022/01/10 09:40:18;;;;;;;8.45;4.15;;;;;;;0.63;100.00;99982.81;5086195;27;20093;-64
2022/01/10 09:43:06;;;;;;;9.07;4.05;;;;;;;0.68;100.00;99981.19;5087866;28;20054;-64
2022/01/10 09:45:53;;;;;;;7.80;3.85;;;;;;;0.66;100.00;99982.91;5079210;28;20058;-65
2022/01/10 09:48:38;;;;;;;7.00;3.83;;;;;;;0.67;100.00;99979.44;5079119;28;20084;-64
2022/01/10 09:51:26;;;;;;;7.20;3.45;;;;;;;0.63;100.00;99978.47;5092934;28;20078;-64
2022/01/10 09:54:13;;;;;;;5.60;3.10;;;;;;;0.63;100.00;99972.41;5088749;28;20431;-64
2022/01/10 09:56:57;;;;;;;7.00;2.95;;;;;;;0.41;100.00;99981.44;5078780;28;20473;-63
2022/01/10 09:59:43;;;;;;;7.80;3.85;;;;;;;0.51;100.00;99975.59;5054856;28;20534;-66
2022/01/10 10:02:34;;;;;;;8.02;3.33;;;;;;;0.66;100.00;99973.31;5069946;28;20059;-63
2022/01/10 10:05:19;;;;;;;6.88;3.10;;;;;;;0.70;100.00;99988.22;5094152;28;20088;-63
2022/01/10 10:08:05;;;;;;;6.82;2.88;;;;;;;0.65;100.00;99982.00;5109507;27;20042;-66
2022/01/10 10:10:53;;;;;;;5.13;2.38;;;;;;;0.72;100.00;99981.31;5060415;28;20051;-64
2022/01/10 10:13:55;;;;;;;7.70;3.33;;;;;;;0.75;100.00;99978.75;5067757;28;20522;-65
2022/01/10 10:16:48;;;;;;;5.80;3.05;;;;;;;0.79;100.00;99974.50;5072132;28;20466;-65
2022/01/10 10:19:34;;;;;;;7.78;3.65;;;;;;;0.69;100.00;99973.41;5056491;28;20534;-62
2022/01/10 10:22:20;;;;;;;5.68;2.95;;;;;;;0.61;100.00;99967.13;5084728;27;20096;-62
2022/01/10 10:25:07;;;;;;;7.93;3.28;;;;;;;0.39;100.00;99970.09;5072552;28;20110;-62
2022/01/10 10:27:52;;;;;;;6.47;3.10;;;;;;;0.48;100.00;99972.94;5053452;28;20046;-65
2022/01/10 10:30:39;;;;;;;6.72;2.75;;;;;;;0.62;100.00;99976.72;5080699;28;20112;-76
2022/01/10 10:33:26;;;;;;;6.55;2.65;;;;;;;0.52;100.00;99966.94;5068146;27;20471;-66
2022/01/10 10:36:11;;;;;;;7.93;3.00;;;;;;;0.68;100.00;99974.25;5084025;28;20517;-65
2022/01/10 10:38:56;;;;;;;6.15;2.53;;;;;;;0.83;100.00;99977.19;5080764;28;20104;-63
2022/01/10 10:41:42;;;;;;;;;;;;;;;0.83;100.00;99984.16;5094815;28;20063;-65
2022/01/10 10:44:28;;;;;;;3.97;2.03;;;;;;;0.83;100.00;99984.16;5097261;28;19925;-76
2022/01/10 10:47:17;;;;;;;5.32;2.38;;;;;;;0.83;100.00;99976.31;5079875;28;20054;-72
2022/01/10 10:50:06;;;;;;;8.02;3.15;;;;;;;0.97;100.00;99993.13;5065372;28;20062;-64
2022/01/10 10:52:51;;;;;;;4.43;2.25;;;;;;;0.83;100.00;99977.19;5083489;27;20063;-68
2022/01/10 10:55:41;;;;;;;6.13;2.40;;;;;;;0.95;100.00;99989.63;5096015;28;20096;-70
2022/01/10 10:58:27;;;;;;;6.90;2.30;;;;;;;0.93;100.00;99996.53;5076645;28;20098;-68
2022/01/10 11:01:12;;;;;;;3.42;1.90;;;;;;;0.91;100.00;99991.28;5081282;28;20446;-66
2022/01/10 11:03:56;;;;;;;5.68;2.47;;;;;;;1.01;100.00;99989.75;5103599;28;20050;-63
2022/01/10 11:06:41;;;;;;;5.75;2.55;;;;;;;1.12;100.00;99996.06;5072754;28;20256;-67
2022/01/10 11:09:26;;;;;;;3.97;2.00;;;;;;;1.13;100.00;99966.50;5087292;27;20579;-67
2022/01/10 11:12:13;;;;;;;6.45;2.20;;;;;;;1.28;100.00;99987.72;5069426;28;20071;-73
2022/01/10 11:14:59;;;;;;;5.10;2.05;;;;;;;1.20;100.00;99991.91;5073905;28;20050;-68
2022/01/10 11:17:44;;;;;;;5.28;2.33;;;;;;;1.02;100.00;99988.91;5063611;27;20067;-67
2022/01/10 11:20:55;;;;;;;4.45;2.00;;;;;;;1.05;100.00;99984.63;5069019;28;20047;-63
2022/01/10 11:23:46;;;;;;;3.85;1.88;;;;;;;0.97;100.00;99987.91;5077978;28;20058;-66
2022/01/10 11:26:45;;;;;;;4.07;1.90;;;;;;;0.86;100.00;99987.69;5067487;28;20360;-64
2022/01/10 11:29:30;;;;;;;3.50;2.20;;;;;;;0.55;100.00;99982.63;5077824;28;20046;-65
2022/01/10 11:32:15;;;;;;;5.85;2.30;;;;;;;0.64;100.00;99984.59;5091192;28;20089;-64
2022/01/10 11:35:05;;;;;;;5.90;2.03;;;;;;;0.74;100.00;99981.34;5073575;28;20043;-67
2022/01/10 11:37:50;;;;;;;2.72;1.60;;;;;;;0.70;100.00;99987.34;5094120;27;20195;-64
2022/01/10 11:40:37;;;;;;;5.70;2.28;;;;;;;0.60;100.00;99991.47;5122756;27;20053;-66
2022/01/10 11:43:31;;;;;;;4.38;2.10;;;;;;;0.57;100.00;99986.19;5089619;28;20063;-63
2022/01/10 11:46:29;;;;;;;3.07;1.73;;;;;;;0.51;100.00;99990.38;5062358;28;20102;-64
2022/01/10 11:49:15;;;;;;;4.43;2.47;;;;;;;0.55;100.00;99993.06;5062779;28;20720;-63
2022/01/10 11:52:02;;;;;;;6.05;1.90;;;;;;;0.34;100.00;99989.97;5067827;28;20074;-65
2022/01/10 11:54:46;;;;;;;5.05;1.88;;;;;;;0.19;100.00;99997.41;5096566;28;20054;-66
2022/01/10 11:57:33;;;;;;;4.60;2.25;;;;;;;0.27;100.00;99997.63;5075635;28;20113;-65
2022/01/10 12:00:19;;;;;;;4.65;2.40;;;;;;;0.28;100.00;99996.78;5062030;28;20419;-62
2022/01/10 12:03:10;;;;;;;4.45;2.20;;;;;;;0.23;100.00;99999.25;5074097;28;20143;-64
2022/01/10 12:05:56;;;;;;;5.95;2.13;;;;;;;0.20;100.00;99999.22;5080223;28;20101;-59
2022/01/10 12:08:42;;;;;;;5.60;2.25;;;;;;;0.20;100.00;99995.69;5100237;28;20526;-62
2022/01/10 12:11:28;;;;;;;3.30;2.03;;;;;;;0.16;100.00;100010.41;5069514;28;20526;-66
2022/01/10 12:14:14;;;;;;;3.95;2.00;;;;;;;0.23;100.00;100016.66;5089025;28;20123;-65
2022/01/10 12:17:00;;;;;;;5.38;2.40;;;;;;;-0.01;100.00;100017.78;5071130;28;20089;-68
2022/01/10 12:19:46;;;;;;;4.85;2.25;;;;;;;0.10;100.00;100036.31;5109856;28;20555;-67
2022/01/10 12:22:31;;;;;;;5.03;2.50;;;;;;;0.19;100.00;100028.69;5088121;28;20183;-67
2022/01/10 12:25:17;;;;;;;6.38;2.63;;;;;;;0.26;100.00;100033.22;5093046;28;20042;-66
2022/01/10 12:28:07;;;;;;;5.93;2.50;;;;;;;0.20;100.00;100043.53;5083097;28;20058;-63
2022/01/10 12:30:53;;;;;;;5.88;2.70;;;;;;;0.11;100.00;100042.41;5075277;28;20074;-67
2022/01/10 12:33:39;;;;;;;5.25;2.72;;;;;;;0.07;100.00;100040.56;5093524;28;20697;-67
2022/01/10 12:36:26;;;;;;;5.78;2.38;;;;;;;0.04;100.00;100034.41;5084859;28;20168;-62
2022/01/10 12:39:21;;;;;;;4.80;2.65;;;;;;;0.13;100.00;100059.84;5086464;28;20055;-64
2022/01/10 12:42:05;;;;;;;5.88;2.72;;;;;;;0.07;100.00;100040.56;5096490;28;20107;-66
2022/01/10 12:44:50;;;;;;;6.07;2.67;;;;;;;0.17;100.00;100054.72;5075402;28;20059;-62
2022/01/10 12:47:35;;;;;;;10.43;5.40;;;;;;;0.15;100.00;100062.50;5071368;28;20050;-64
2022/01/10 12:50:20;;;;;;;6.35;2.90;;;;;;;0.11;100.00;100060.66;5103229;28;20086;-63
2022/01/10 12:53:08;;;;;;;7.63;2.65;;;;;;;0.05;100.00;100048.34;5086675;27;20105;-64
2022/01/10 12:55:52;;;;;;;5.10;2.65;;;;;;;-0.01;100.00;100069.91;5081693;28;20117;-65
2022/01/10 12:58:37;;;;;;;5.60;2.40;;;;;;;-0.02;100.00;100072.47;5071093;28;20093;-64
2022/01/10 13:01:22;;;;;;;6.43;2.88;;;;;;;-0.05;100.00;100078.50;5088387;28;20411;-63
2022/01/10 13:04:07;;;;;;;;;;;;;;;0.11;100.00;100084.97;5065428;28;20054;-64
2022/01/10 13:06:52;;;;;;;5.70;2.45;;;;;;;0.05;100.00;100085.69;5107187;28;19942;-68
2022/01/10 13:09:39;;;;;;;5.30;2.67;;;;;;;0.12;100.00;100088.47;5096093;27;20526;-65